Time;durP1;ratioP1;P1;durP2;ratioP2;P2;SDS_P1;SDS_P2;PMS_P1;PMS_P2;Temp;Humidity;BMP_temperature;BMP_pressure;BME280_temperature;BME280_humidity;BME280_pressure;Samples;Min_cycle;Max_cycle;Signal;HPM_P1;HPM_P2
2024/01/01 00:01:55;;;;;;;66.90;47.47;;;6.20;80.00;;;;;;5033455;28;20282;-77
2024/01/01 00:04:23;;;;;;;43.78;31.95;;;6.10;79.20;;;;;;5032265;28;20267;-77
2024/01/01 00:06:50;;;;;;;41.58;30.50;;;6.10;79.40;;;;;;5032320;28;20191;-78
2024/01/01 00:09:16;;;;;;;57.40;40.90;;;6.10;79.20;;;;;;5033315;28;20266;-78
2024/01/01 00:11:45;;;;;;;52.70;35.65;;;6.10;79.00;;;;;;5032735;28;20717;-76
2024/01/01 00:14:12;;;;;;;52.83;33.97;;;6.10;78.10;;;;;;5033128;28;20191;-77
2024/01/01 00:16:40;;;;;;;36.03;25.27;;;6.00;78.20;;;;;;5032383;28;20712;-78
2024/01/01 00:19:08;;;;;;;30.30;20.48;;;6.00;78.90;;;;;;5033094;28;20191;-77
2024/01/01 00:21:34;;;;;;;32.33;21.23;;;6.00;78.90;;;;;;5033282;28;20564;-77
2024/01/01 00:24:02;;;;;;;31.65;18.85;;;5.90;79.00;;;;;;5032765;28;20242;-77
2024/01/01 00:26:29;;;;;;;29.63;19.58;;;6.00;79.40;;;;;;5032432;28;20554;-77
2024/01/01 00:28:57;;;;;;;31.27;19.33;;;6.00;79.00;;;;;;5032863;28;20289;-77
2024/01/01 00:31:24;;;;;;;28.25;20.02;;;5.90;79.50;;;;;;5033042;28;20298;-76
2024/01/01 00:33:51;;;;;;;25.67;18.00;;;6.00;79.20;;;;;;5032674;28;20657;-77
2024/01/01 00:36:18;;;;;;;26.17;16.42;;;6.00;79.20;;;;;;5032351;28;20187;-77
2024/01/01 00:38:45;;;;;;;26.05;15.32;;;5.90;79.00;;;;;;5032194;28;20786;-77
2024/01/01 00:41:15;;;;;;;23.48;14.10;;;5.90;79.10;;;;;;5032541;28;20187;-77
2024/01/01 00:43:43;;;;;;;26.15;17.08;;;5.90;79.50;;;;;;5032701;28;20227;-77
2024/01/01 00:46:12;;;;;;;24.98;15.27;;;5.80;80.00;;;;;;5031950;28;20188;-77
2024/01/01 00:48:39;;;;;;;25.20;15.20;;;5.90;80.50;;;;;;5032798;28;20312;-77
2024/01/01 00:51:06;;;;;;;18.80;14.10;;;5.90;80.50;;;;;;5033007;28;20282;-77
2024/01/01 00:53:33;;;;;;;16.60;11.43;;;5.90;80.10;;;;;;5032806;28;20305;-77
2024/01/01 00:56:00;;;;;;;21.42;13.50;;;5.80;80.40;;;;;;5032513;28;20227;-76
2024/01/01 00:58:27;;;;;;;20.88;13.43;;;5.80;80.50;;;;;;5032650;28;20270;-77
2024/01/01 01:00:56;;;;;;;19.80;13.27;;;5.80;80.40;;;;;;5032755;28;20203;-77
2024/01/01 01:03:24;;;;;;;20.42;13.10;;;5.70;80.80;;;;;;5033308;28;20559;-77
2024/01/01 01:05:51;;;;;;;19.88;12.77;;;5.70;80.90;;;;;;5033188;28;20250;-77
2024/01/01 01:08:18;;;;;;;18.02;11.30;;;5.70;80.70;;;;;;5031707;28;20234;-77
2024/01/01 01:10:45;;;;;;;16.70;11.95;;;5.60;80.90;;;;;;5029401;28;20261;-77
2024/01/01 01:13:12;;;;;;;17.50;11.00;;;5.60;80.80;;;;;;5032698;28;20281;-77
2024/01/01 01:15:39;;;;;;;15.15;9.52;;;5.60;81.10;;;;;;5032669;28;20242;-76
2024/01/01 01:18:06;;;;;;;13.13;7.25;;;5.60;81.10;;;;;;5035343;28;20191;-77
2024/01/01 01:20:35;;;;;;;11.20;7.22;;;5.60;80.20;;;;;;5036602;28;20227;-76
2024/01/01 01:23:02;;;;;;;15.80;7.82;;;5.70;79.70;;;;;;5036043;28;20733;-76
2024/01/01 01:25:29;;;;;;;13.00;7.05;;;5.70;78.90;;;;;;5036306;28;20733;-76
2024/01/01 01:27:56;;;;;;;11.10;7.57;;;5.80;77.90;;;;;;5036365;28;20620;-77
2024/01/01 01:30:23;;;;;;;10.38;6.65;;;5.70;78.30;;;;;;5036066;28;20639;-76
2024/01/01 01:32:50;;;;;;;11.52;6.70;;;5.70;78.40;;;;;;5036081;28;20724;-77
2024/01/01 01:35:17;;;;;;;10.80;6.75;;;5.70;78.10;;;;;;5035592;28;20218;-76
2024/01/01 01:37:46;;;;;;;7.60;6.45;;;5.70;78.20;;;;;;5035491;28;20274;-77
2024/01/01 01:40:13;;;;;;;9.40;6.32;;;5.60;78.30;;;;;;5035918;28;20187;-76
2024/01/01 01:42:40;;;;;;;11.75;6.22;;;5.60;78.00;;;;;;5034762;28;20203;-76
2024/01/01 01:45:08;;;;;;;8.52;5.50;;;5.60;78.10;;;;;;5035870;28;20666;-77
2024/01/01 01:47:35;;;;;;;8.45;4.80;;;5.50;78.40;;;;;;5035153;28;20215;-77
2024/01/01 01:50:03;;;;;;;8.00;5.00;;;5.50;78.50;;;;;;5035393;28;20212;-76
2024/01/01 01:52:35;;;;;;;6.85;3.33;;;5.50;78.40;;;;;;5035709;28;20198;-76
2024/01/01 01:55:04;;;;;;;4.63;2.33;;;5.50;78.30;;;;;;5035490;28;20634;-76
2024/01/01 01:57:34;;;;;;;3.83;1.35;;;5.50;78.00;;;;;;5035615;28;20191;-76
2024/01/01 02:00:04;;;;;;;4.97;1.70;;;5.60;77.10;;;;;;5035068;28;20184;-77
2024/01/01 02:02:35;;;;;;;4.45;1.58;;;5.60;75.80;;;;;;5035349;28;20659;-76
2024/01/01 02:05:03;;;;;;;4.65;1.33;;;5.70;76.10;;;;;;5035817;28;20187;-78
2024/01/01 02:07:30;;;;;;;3.05;1.60;;;5.70;74.90;;;;;;5035875;28;20241;-77
2024/01/01 02:09:57;;;;;;;2.83;1.23;;;5.70;74.50;;;;;;5034585;28;20631;-77
2024/01/01 02:12:26;;;;;;;2.60;1.42;;;5.70;73.80;;;;;;5035193;28;20262;-77
2024/01/01 02:14:54;;;;;;;5.82;2.05;;;5.80;73.80;;;;;;5035310;28;20301;-77
2024/01/01 02:17:21;;;;;;;3.55;1.48;;;5.80;73.70;;;;;;5035601;28;20282;-76
2024/01/01 02:19:50;;;;;;;2.97;1.20;;;5.80;73.70;;;;;;5035165;28;20661;-77
2024/01/01 02:22:17;;;;;;;4.15;1.70;;;5.80;73.70;;;;;;5035420;28;20191;-76
2024/01/01 02:24:45;;;;;;;3.45;1.13;;;5.80;73.50;;;;;;5035247;28;20282;-77
2024/01/01 02:27:12;;;;;;;2.90;1.63;;;5.80;73.00;;;;;;5035692;28;20234;-76
2024/01/01 02:29:39;;;;;;;5.50;2.08;;;5.80;73.30;;;;;;5034850;28;20222;-76
2024/01/01 02:32:06;;;;;;;3.95;1.52;;;5.80;73.20;;;;;;5035478;28;20270;-76
2024/01/01 02:34:33;;;;;;;3.50;2.17;;;5.70;73.10;;;;;;5035706;28;20232;-76
2024/01/01 02:37:00;;;;;;;3.08;1.70;;;5.80;73.00;;;;;;5035957;28;20278;-77
2024/01/01 02:39:27;;;;;;;6.80;2.05;;;5.80;73.00;;;;;;5035575;28;20238;-76
2024/01/01 02:41:55;;;;;;;4.30;1.85;;;5.80;72.20;;;;;;5035439;28;20199;-77
2024/01/01 02:44:22;;;;;;;4.88;1.90;;;5.80;72.20;;;;;;5035000;28;20272;-77
2024/01/01 02:46:49;;;;;;;4.78;1.70;;;5.70;72.20;;;;;;5035403;28;20254;-77
2024/01/01 02:49:16;;;;;;;3.88;1.92;;;5.70;72.00;;;;;;5035083;28;20195;-77
2024/01/01 02:51:44;;;;;;;3.50;1.90;;;5.80;71.40;;;;;;5035511;28;20613;-77
2024/01/01 02:54:11;;;;;;;2.72;1.52;;;5.80;71.30;;;;;;5034807;28;20190;-77
2024/01/01 02:56:38;;;;;;;2.90;1.40;;;5.80;71.30;;;;;;5035463;28;20196;-76
2024/01/01 02:59:06;;;;;;;3.50;2.05;;;5.80;71.10;;;;;;5034900;28;20215;-77
2024/01/01 03:01:33;;;;;;;2.38;1.00;;;5.70;70.70;;;;;;5034950;28;20191;-77
2024/01/01 03:04:00;;;;;;;4.63;2.08;;;5.80;70.70;;;;;;5034778;28;20596;-76
2024/01/01 03:06:27;;;;;;;4.65;1.60;;;5.80;70.10;;;;;;5034868;28;20714;-77
2024/01/01 03:08:54;;;;;;;3.05;1.00;;;5.80;69.80;;;;;;5035306;28;20278;-77
2024/01/01 03:11:21;;;;;;;3.47;1.40;;;5.80;69.20;;;;;;5034916;28;20302;-78
2024/01/01 03:13:49;;;;;;;3.67;1.20;;;5.80;69.20;;;;;;5034242;28;20199;-77
2024/01/01 03:16:17;;;;;;;3.92;1.30;;;5.80;68.40;;;;;;5035066;28;20290;-76
2024/01/01 03:18:44;;;;;;;2.25;1.08;;;5.90;68.10;;;;;;5034693;28;20658;-77
2024/01/01 03:21:11;;;;;;;3.80;1.20;;;5.90;68.20;;;;;;5034885;28;20278;-77
2024/01/01 03:23:40;;;;;;;3.00;1.20;;;5.90;67.30;;;;;;5034785;28;20223;-77
2024/01/01 03:26:07;;;;;;;3.42;1.10;;;5.90;67.20;;;;;;5034823;28;20274;-77
2024/01/01 03:28:33;;;;;;;4.60;1.25;;;5.90;66.70;;;;;;5034210;28;20579;-77
2024/01/01 03:31:01;;;;;;;2.78;1.27;;;5.90;66.70;;;;;;5034520;28;20322;-77
2024/01/01 03:33:29;;;;;;;2.33;0.90;;;5.90;67.10;;;;;;5034335;28;20198;-77
2024/01/01 03:35:56;;;;;;;3.40;1.13;;;5.80;66.30;;;;;;5034699;28;20287;-77
2024/01/01 03:38:25;;;;;;;2.95;1.20;;;5.80;66.20;;;;;;5034558;28;20615;-77
2024/01/01 03:40:51;;;;;;;3.30;1.02;;;5.80;66.50;;;;;;5033146;28;20641;-77
2024/01/01 03:43:18;;;;;;;2.95;1.17;;;5.70;66.50;;;;;;5014333;28;20275;-77
2024/01/01 03:45:46;;;;;;;3.85;1.10;;;5.80;66.10;;;;;;5025052;28;20725;-77
2024/01/01 03:48:13;;;;;;;3.85;1.25;;;5.80;65.70;;;;;;5034365;28;20258;-76
2024/01/01 03:50:41;;;;;;;2.80;0.90;;;5.70;66.00;;;;;;5034035;28;20215;-77
2024/01/01 03:53:08;;;;;;;2.97;1.30;;;5.60;66.70;;;;;;5033932;28;20191;-77
2024/01/01 03:55:37;;;;;;;2.47;1.00;;;5.60;66.90;;;;;;5034181;28;20229;-76
2024/01/01 03:58:04;;;;;;;2.47;1.00;;;5.60;66.60;;;;;;5033883;28;20184;-76
2024/01/01 04:00:33;;;;;;;3.60;1.15;;;5.60;66.60;;;;;;5034127;28;20207;-77
2024/01/01 04:03:00;;;;;;;2.90;1.67;;;5.40;66.70;;;;;;5033736;28;20195;-77
2024/01/01 04:05:29;;;;;;;4.35;1.27;;;5.40;67.10;;;;;;5034227;28;20230;-77
2024/01/01 04:07:57;;;;;;;4.38;1.50;;;5.40;66.70;;;;;;5034129;28;20782;-77
2024/01/01 04:10:25;;;;;;;3.20;1.55;;;5.30;67.10;;;;;;5033601;28;20214;-77
2024/01/01 04:12:53;;;;;;;4.00;1.55;;;5.20;67.60;;;;;;5033581;28;20249;-77
2024/01/01 04:15:20;;;;;;;3.72;1.55;;;5.30;67.60;;;;;;5033963;28;20287;-77
2024/01/01 04:17:47;;;;;;;3.28;1.30;;;5.20;67.70;;;;;;5033595;28;20249;-77
2024/01/01 04:20:14;;;;;;;7.93;2.67;;;5.20;67.60;;;;;;5033817;28;20286;-77
2024/01/01 04:22:51;;;;;;;2.20;0.90;;;5.20;67.20;;;;;;5033434;28;20227;-77
2024/01/01 04:25:19;;;;;;;2.10;1.05;;;5.20;67.00;;;;;;5032864;28;20645;-77
2024/01/01 04:27:47;;;;;;;2.65;1.17;;;5.30;67.20;;;;;;5033864;28;20226;-77
2024/01/01 04:30:14;;;;;;;2.00;0.95;;;5.20;67.40;;;;;;5033638;28;20215;-77
2024/01/01 04:32:41;;;;;;;2.92;1.10;;;5.20;67.70;;;;;;5033299;28;20226;-77
2024/01/01 04:35:09;;;;;;;3.65;1.60;;;5.30;67.30;;;;;;5033420;28;20219;-77
2024/01/01 04:37:35;;;;;;;3.05;1.10;;;5.20;67.70;;;;;;5033682;28;20238;-77
2024/01/01 04:40:04;;;;;;;5.68;1.20;;;5.10;67.90;;;;;;5033209;28;20196;-77
2024/01/01 04:42:33;;;;;;;2.63;1.00;;;5.10;68.30;;;;;;5033732;28;20274;-76
2024/01/01 04:45:00;;;;;;;2.13;0.80;;;5.10;68.00;;;;;;5033164;28;20602;-76
2024/01/01 04:47:29;;;;;;;2.58;0.93;;;5.10;67.50;;;;;;5033075;28;20227;-77
2024/01/01 04:49:56;;;;;;;3.55;1.20;;;5.10;67.10;;;;;;5032582;28;20196;-77
2024/01/01 04:52:23;;;;;;;3.55;0.80;;;5.00;67.40;;;;;;5032568;28;20219;-77
2024/01/01 04:54:54;;;;;;;2.40;0.90;;;5.00;67.40;;;;;;5032579;28;20223;-78
2024/01/01 04:57:21;;;;;;;3.63;1.02;;;5.00;67.40;;;;;;5033657;28;20573;-77
2024/01/01 04:59:49;;;;;;;2.45;1.02;;;5.00;67.70;;;;;;5032881;28;20278;-77
2024/01/01 05:02:16;;;;;;;5.85;1.38;;;5.00;67.80;;;;;;5033351;28;20242;-77
2024/01/01 05:04:43;;;;;;;4.78;1.25;;;5.00;67.70;;;;;;5032980;28;20227;-77
2024/01/01 05:07:10;;;;;;;2.00;1.10;;;5.00;67.10;;;;;;5032253;28;20238;-77
2024/01/01 05:09:37;;;;;;;4.03;1.10;;;5.20;66.30;;;;;;5033039;28;20283;-77
2024/01/01 05:12:04;;;;;;;8.77;1.10;;;5.20;66.50;;;;;;5033031;28;20277;-76
2024/01/01 05:14:31;;;;;;;2.50;0.68;;;5.30;66.30;;;;;;5032922;28;20227;-76
2024/01/01 05:17:00;;;;;;;2.20;1.10;;;5.40;66.90;;;;;;5033171;28;20196;-76
2024/01/01 05:19:27;;;;;;;4.85;1.15;;;5.50;67.00;;;;;;5032855;28;20619;-77
2024/01/01 05:21:53;;;;;;;5.15;0.98;;;5.60;67.50;;;;;;5032132;28;20223;-77
2024/01/01 05:24:21;;;;;;;3.00;1.13;;;5.60;67.80;;;;;;5033304;28;20597;-76
2024/01/01 05:26:48;;;;;;;2.20;1.00;;;5.60;67.80;;;;;;5033235;28;20350;-77
2024/01/01 05:29:15;;;;;;;3.38;1.20;;;5.70;67.90;;;;;;5032745;28;20249;-77
2024/01/01 05:31:41;;;;;;;1.90;0.80;;;5.80;67.70;;;;;;5032646;28;20306;-77
2024/01/01 05:34:10;;;;;;;2.80;0.98;;;5.80;67.80;;;;;;5033198;28;20231;-77
2024/01/01 05:36:41;;;;;;;3.55;1.15;;;5.80;67.80;;;;;;5033019;28;20227;-77
2024/01/01 05:39:08;;;;;;;2.70;1.00;;;5.80;67.80;;;;;;5033105;28;20226;-76
2024/01/01 05:41:35;;;;;;;3.03;1.20;;;5.80;67.80;;;;;;5032486;28;20218;-77
2024/01/01 05:44:02;;;;;;;2.63;1.33;;;5.80;68.00;;;;;;5032933;28;20188;-77
2024/01/01 05:46:31;;;;;;;3.30;1.45;;;5.70;68.20;;;;;;5032780;28;20262;-77
2024/01/01 05:48:58;;;;;;;2.78;1.13;;;5.70;68.30;;;;;;5032943;28;20192;-77
2024/01/01 05:51:26;;;;;;;3.85;1.10;;;5.80;68.60;;;;;;5032900;28;20218;-77
2024/01/01 05:53:57;;;;;;;2.30;1.10;;;5.80;68.60;;;;;;5032964;28;20278;-77
2024/01/01 05:56:24;;;;;;;2.35;1.15;;;5.90;68.60;;;;;;5032255;28;20184;-77
2024/01/01 05:58:54;;;;;;;3.90;1.02;;;5.90;68.70;;;;;;5032358;28;20196;-77
2024/01/01 06:01:21;;;;;;;2.33;1.20;;;5.90;69.00;;;;;;5032613;28;20688;-77
2024/01/01 06:03:50;;;;;;;2.42;1.10;;;5.90;69.20;;;;;;5033408;28;20529;-77
2024/01/01 06:06:17;;;;;;;3.17;1.08;;;5.90;69.30;;;;;;5035581;28;20210;-76
2024/01/01 06:08:46;;;;;;;3.70;1.25;;;5.90;69.40;;;;;;5036689;28;20200;-76
2024/01/01 06:11:12;;;;;;;2.17;0.90;;;5.80;69.60;;;;;;5036301;28;20250;-76
2024/01/01 06:13:39;;;;;;;2.55;1.00;;;5.80;70.00;;;;;;5036200;28;20242;-77
2024/01/01 06:16:07;;;;;;;2.25;1.30;;;5.80;70.40;;;;;;5032001;28;20227;-77
2024/01/01 06:18:34;;;;;;;3.35;1.15;;;5.80;70.90;;;;;;5036149;28;20261;-79
2024/01/01 06:21:01;;;;;;;2.83;0.95;;;5.80;70.70;;;;;;5035798;28;20274;-79
2024/01/01 06:23:28;;;;;;;2.45;1.05;;;5.70;70.70;;;;;;5034899;28;20227;-78
2024/01/01 06:25:57;;;;;;;2.72;1.25;;;5.70;70.90;;;;;;5035723;28;20275;-78
2024/01/01 06:28:26;;;;;;;2.20;1.00;;;5.70;71.10;;;;;;5035498;28;20187;-78
2024/01/01 06:30:53;;;;;;;2.65;1.13;;;5.80;70.90;;;;;;5035245;28;20239;-78
2024/01/01 06:33:20;;;;;;;2.40;0.93;;;5.80;70.80;;;;;;5035657;28;20234;-78
2024/01/01 06:35:47;;;;;;;3.33;1.30;;;5.80;70.80;;;;;;5035092;28;20234;-79
2024/01/01 06:38:14;;;;;;;5.05;1.42;;;5.80;70.80;;;;;;5035365;28;20230;-79
2024/01/01 06:40:43;;;;;;;2.50;1.00;;;5.80;70.70;;;;;;5035061;28;20198;-80
2024/01/01 06:43:12;;;;;;;4.25;1.17;;;5.80;70.40;;;;;;5035576;28;20285;-79
2024/01/01 06:45:39;;;;;;;2.65;0.90;;;5.80;70.40;;;;;;5034685;28;20200;-79
2024/01/01 06:48:11;;;;;;;2.97;1.30;;;5.70;70.30;;;;;;5035621;28;20729;-80
2024/01/01 06:50:40;;;;;;;2.25;1.00;;;5.70;70.30;;;;;;5034983;28;20231;-79
2024/01/01 06:53:07;;;;;;;2.20;1.20;;;5.70;70.40;;;;;;5035396;28;20238;-79
2024/01/01 06:55:39;;;;;;;2.85;1.20;;;5.70;70.30;;;;;;5035259;28;20187;-79
2024/01/01 06:58:06;;;;;;;2.40;1.00;;;5.70;69.80;;;;;;5035278;28;20218;-79
2024/01/01 07:00:34;;;;;;;2.95;1.30;;;5.70;69.90;;;;;;5034758;28;20188;-79
2024/01/01 07:03:01;;;;;;;3.25;1.20;;;5.60;69.80;;;;;;5033320;28;20196;-79
2024/01/01 07:05:29;;;;;;;3.20;1.08;;;5.70;69.80;;;;;;5033912;28;20188;-78
2024/01/01 07:07:56;;;;;;;2.20;0.90;;;5.60;69.80;;;;;;5031799;28;20278;-78
2024/01/01 07:10:23;;;;;;;2.35;1.00;;;5.60;70.20;;;;;;5033572;28;20665;-78
2024/01/01 07:12:50;;;;;;;2.45;1.10;;;5.60;69.50;;;;;;5034438;28;20198;-78
2024/01/01 07:15:16;;;;;;;6.95;2.35;;;5.60;69.40;;;;;;5034045;28;20195;-78
2024/01/01 07:17:45;;;;;;;3.35;1.02;;;5.60;69.10;;;;;;5033919;28;20230;-78
2024/01/01 07:20:20;;;;;;;2.60;1.00;;;5.60;69.00;;;;;;5033837;28;20278;-78
2024/01/01 07:22:48;;;;;;;4.55;1.35;;;5.60;69.00;;;;;;5034228;28;20187;-78
2024/01/01 07:25:15;;;;;;;1.95;0.95;;;5.60;68.80;;;;;;5033799;28;20184;-79
2024/01/01 07:27:42;;;;;;;3.35;0.98;;;5.70;68.70;;;;;;5034174;28;20282;-79
2024/01/01 07:30:10;;;;;;;3.47;1.25;;;5.70;68.60;;;;;;5034002;28;20282;-79
2024/01/01 07:32:38;;;;;;;2.80;1.20;;;5.70;68.40;;;;;;5033889;28;20224;-79
2024/01/01 07:35:09;;;;;;;2.70;1.00;;;5.70;68.30;;;;;;5033490;28;20198;-79
2024/01/01 07:37:37;;;;;;;2.40;0.98;;;5.70;67.90;;;;;;5033870;28;20206;-78
2024/01/01 07:40:11;;;;;;;2.95;1.08;;;5.80;67.70;;;;;;5033728;28;20591;-78
2024/01/01 07:42:38;;;;;;;4.38;1.20;;;5.80;67.10;;;;;;5033939;28;20271;-78
2024/01/01 07:45:06;;;;;;;3.58;1.13;;;5.90;67.30;;;;;;5033290;28;20611;-78
2024/01/01 07:47:35;;;;;;;5.20;1.63;;;6.10;66.90;;;;;;5033223;28;20218;-78
2024/01/01 07:50:02;;;;;;;4.40;1.38;;;6.30;66.00;;;;;;5033882;28;20199;-78
2024/01/01 07:52:31;;;;;;;3.50;1.30;;;6.70;65.10;;;;;;5033472;28;20207;-78
2024/01/01 07:54:58;;;;;;;4.35;1.23;;;7.00;64.70;;;;;;5033770;28;20246;-78
2024/01/01 07:57:25;;;;;;;3.40;1.15;;;7.30;62.80;;;;;;5032938;28;20210;-78
2024/01/01 07:59:55;;;;;;;5.25;1.38;;;7.50;61.60;;;;;;5033193;28;20638;-78
2024/01/01 08:02:22;;;;;;;2.90;1.80;;;7.50;60.80;;;;;;5033033;28;20278;-79
2024/01/01 08:04:49;;;;;;;4.45;1.45;;;7.60;59.80;;;;;;5029295;28;20266;-79
2024/01/01 08:07:16;;;;;;;5.13;1.80;;;7.70;60.00;;;;;;5032766;28;20188;-80
2024/01/01 08:09:44;;;;;;;3.05;1.83;;;7.70;59.50;;;;;;5033159;28;20226;-80
2024/01/01 08:12:12;;;;;;;3.15;1.20;;;7.70;59.30;;;;;;5032992;28;20669;-80
2024/01/01 08:14:40;;;;;;;2.10;0.90;;;7.70;58.80;;;;;;5032844;28;20641;-80
2024/01/01 08:17:08;;;;;;;3.60;1.10;;;7.60;59.00;;;;;;5032974;28;20195;-81
2024/01/01 08:19:35;;;;;;;3.25;0.95;;;7.60;58.80;;;;;;5032986;28;20207;-80
2024/01/01 08:22:02;;;;;;;3.00;1.23;;;7.50;58.00;;;;;;5033352;28;20277;-79
2024/01/01 08:24:28;;;;;;;3.17;1.20;;;7.50;58.50;;;;;;5033045;28;20612;-79
2024/01/01 08:26:57;;;;;;;5.00;1.00;;;7.50;58.80;;;;;;5032007;28;20195;-80
2024/01/01 08:29:24;;;;;;;4.90;1.25;;;7.60;58.50;;;;;;5032062;28;20203;-80
2024/01/01 08:31:50;;;;;;;3.75;1.13;;;7.60;58.50;;;;;;5033044;28;20219;-79
2024/01/01 08:34:17;;;;;;;3.60;1.40;;;7.70;59.10;;;;;;5033126;28;20203;-79
2024/01/01 08:36:44;;;;;;;2.10;1.00;;;7.70;58.60;;;;;;5033107;28;20226;-79
2024/01/01 08:39:11;;;;;;;3.05;1.10;;;7.80;58.30;;;;;;5032144;28;20270;-78
2024/01/01 08:41:43;;;;;;;7.13;1.50;;;7.90;58.30;;;;;;5033247;28;20195;-79
2024/01/01 08:44:11;;;;;;;3.90;1.35;;;8.10;58.00;;;;;;5021760;28;20207;-79
2024/01/01 08:46:38;;;;;;;3.22;1.20;;;8.30;57.30;;;;;;5032455;28;20319;-80
2024/01/01 08:49:05;;;;;;;3.63;1.77;;;8.40;57.30;;;;;;5032539;28;20275;-80
2024/01/01 08:51:32;;;;;;;2.80;1.20;;;8.70;57.40;;;;;;5031938;28;20234;-80
2024/01/01 08:53:59;;;;;;;2.50;1.10;;;9.10;56.70;;;;;;5032463;28;20219;-80
2024/01/01 08:56:26;;;;;;;4.10;1.10;;;9.60;56.20;;;;;;5031961;28;20287;-80
2024/01/01 08:58:53;;;;;;;2.60;1.15;;;10.00;53.10;;;;;;5021188;28;20721;-81
2024/01/01 09:01:22;;;;;;;2.42;1.30;;;10.30;52.40;;;;;;5029835;28;20219;-81
2024/01/01 09:03:48;;;;;;;2.40;1.23;;;10.60;52.10;;;;;;5030924;28;20684;-81
2024/01/01 09:06:15;;;;;;;3.90;1.10;;;11.00;51.40;;;;;;5031842;28;20288;-81
2024/01/01 09:08:43;;;;;;;4.63;1.10;;;11.40;50.50;;;;;;5030691;28;20223;-81
2024/01/01 09:11:10;;;;;;;4.78;1.05;;;11.70;48.80;;;;;;5032297;28;20210;-81
2024/01/01 09:13:37;;;;;;;5.75;1.60;;;11.90;47.90;;;;;;5032356;28;20282;-81
2024/01/01 09:16:04;;;;;;;4.22;1.13;;;12.20;48.10;;;;;;5031995;28;20226;-80
2024/01/01 09:18:32;;;;;;;2.97;1.13;;;12.50;47.10;;;;;;5032593;28;20278;-81
2024/01/01 09:20:59;;;;;;;4.30;1.60;;;12.80;46.20;;;;;;5031827;28;20522;-80
2024/01/01 09:23:27;;;;;;;3.20;1.13;;;13.10;45.00;;;;;;5032499;28;20525;-80
2024/01/01 09:25:55;;;;;;;2.40;0.80;;;13.50;44.30;;;;;;5032694;28;20488;-80
2024/01/01 09:28:22;;;;;;;3.10;1.00;;;13.80;43.60;;;;;;5031905;28;20472;-80
2024/01/01 09:30:49;;;;;;;3.30;1.37;;;14.00;42.80;;;;;;5031439;28;20448;-80
2024/01/01 09:33:16;;;;;;;2.53;1.00;;;14.20;42.70;;;;;;5032325;28;20568;-80
2024/01/01 09:35:45;;;;;;;2.87;1.13;;;14.50;42.30;;;;;;5028725;28;21000;-79
2024/01/01 09:38:12;;;;;;;3.07;2.10;;;14.70;40.00;;;;;;5033085;28;20445;-80
2024/01/01 09:40:39;;;;;;;5.60;1.50;;;14.70;39.20;;;;;;5028072;28;20521;-80
2024/01/01 09:43:06;;;;;;;2.83;1.17;;;14.50;38.80;;;;;;5028846;28;20820;-79
2024/01/01 09:45:35;;;;;;;2.80;1.13;;;14.30;38.80;;;;;;5035795;28;20470;-79
2024/01/01 09:48:02;;;;;;;3.77;1.13;;;14.10;39.30;;;;;;5036378;28;20896;-79
2024/01/01 09:50:29;;;;;;;2.70;1.23;;;13.80;39.10;;;;;;5034839;28;20476;-79
2024/01/01 09:53:00;;;;;;;3.60;1.63;;;13.50;39.60;;;;;;5035543;28;20465;-79
2024/01/01 09:55:29;;;;;;;2.60;1.20;;;13.50;39.80;;;;;;5036133;28;20488;-78
2024/01/01 09:57:56;;;;;;;2.60;1.27;;;13.40;40.10;;;;;;5035431;28;20970;-79
2024/01/01 10:00:24;;;;;;;2.40;1.20;;;13.60;39.60;;;;;;5034974;28;21000;-78
2024/01/01 10:02:51;;;;;;;3.67;0.90;;;13.40;40.50;;;;;;5035505;28;20536;-78
2024/01/01 10:05:18;;;;;;;2.77;1.10;;;13.20;40.90;;;;;;5035496;28;20438;-78
2024/01/01 10:07:47;;;;;;;2.20;1.00;;;13.00;41.30;;;;;;5035464;28;20956;-78
2024/01/01 10:10:27;;;;;;;2.97;1.30;;;12.80;40.80;;;;;;5034873;28;20429;-78
2024/01/01 10:12:54;;;;;;;3.30;1.53;;;12.60;41.70;;;;;;5035359;28;20856;-78
2024/01/01 10:15:22;;;;;;;3.70;1.37;;;12.70;41.50;;;;;;5035269;28;20438;-78
2024/01/01 10:17:51;;;;;;;3.23;0.93;;;12.70;41.10;;;;;;5035195;28;20472;-78
2024/01/01 10:20:20;;;;;;;5.30;1.40;;;12.70;40.60;;;;;;5034908;28;20449;-78
2024/01/01 10:22:47;;;;;;;10.40;1.50;;;12.50;41.00;;;;;;5035526;28;21064;-78
2024/01/01 10:25:16;;;;;;;4.00;1.30;;;12.60;40.80;;;;;;5035512;28;20786;-78
2024/01/01 10:27:45;;;;;;;4.77;1.60;;;12.50;40.20;;;;;;5034910;28;20438;-79
2024/01/01 10:30:12;;;;;;;2.63;1.10;;;12.30;40.70;;;;;;5024710;28;20434;-80
2024/01/01 10:32:41;;;;;;;3.77;1.50;;;12.50;41.60;;;;;;5019746;28;20989;-79
2024/01/01 10:35:10;;;;;;;3.97;1.47;;;12.90;40.90;;;;;;5035064;28;20473;-79
2024/01/01 10:37:38;;;;;;;3.83;1.30;;;13.10;40.30;;;;;;5034486;28;20441;-79
2024/01/01 10:40:09;;;;;;;2.10;0.70;;;13.10;40.10;;;;;;5034503;28;20517;-80
2024/01/01 10:42:56;;;;;;;2.83;1.20;;;13.10;40.10;;;;;;5034670;28;20840;-80
2024/01/01 10:45:24;;;;;;;3.63;1.10;;;13.00;39.60;;;;;;5035288;28;20497;-79
2024/01/01 10:47:55;;;;;;;5.30;1.07;;;12.70;39.90;;;;;;5034183;28;21050;-79
2024/01/01 10:50:28;;;;;;;3.93;1.37;;;12.30;40.40;;;;;;5034008;28;20877;-80
2024/01/01 10:53:06;;;;;;;2.30;0.97;;;12.10;41.30;;;;;;5034102;28;20552;-80
2024/01/01 10:55:52;;;;;;;2.60;1.30;;;12.00;41.70;;;;;;5034942;28;20769;-79
2024/01/01 10:58:28;;;;;;;3.97;0.97;;;11.80;41.80;;;;;;5034808;28;20418;-80
2024/01/01 11:01:04;;;;;;;3.00;1.20;;;11.80;41.80;;;;;;5034924;28;20512;-79
2024/01/01 11:03:33;;;;;;;3.20;1.07;;;11.90;41.50;;;;;;5033792;28;20461;-79
2024/01/01 11:06:21;;;;;;;5.07;1.13;;;12.10;41.30;;;;;;5034799;28;20513;-80
2024/01/01 11:08:48;;;;;;;3.63;1.00;;;12.40;40.40;;;;;;5034366;28;20445;-80
2024/01/01 11:11:27;;;;;;;3.20;1.10;;;12.90;40.10;;;;;;5034606;28;20434;-80
2024/01/01 11:13:55;;;;;;;4.67;1.33;;;13.60;39.00;;;;;;5034422;28;20475;-80
2024/01/01 11:16:26;;;;;;;3.60;0.93;;;14.10;38.80;;;;;;5033894;28;20437;-81
2024/01/01 11:18:54;;;;;;;3.00;1.60;;;14.60;37.90;;;;;;5034039;28;20476;-80
2024/01/01 11:21:32;;;;;;;3.60;1.33;;;15.20;36.80;;;;;;5033321;28;20458;-80
2024/01/01 11:24:01;;;;;;;2.67;0.80;;;15.80;35.30;;;;;;5034750;28;20430;-80
2024/01/01 11:26:32;;;;;;;4.20;1.10;;;16.20;35.30;;;;;;5033980;28;20944;-80
2024/01/01 11:29:04;;;;;;;2.47;0.80;;;16.60;34.20;;;;;;5031016;28;20501;-81
2024/01/01 11:31:34;;;;;;;5.80;1.40;;;16.90;32.90;;;;;;5032425;28;20427;-80
2024/01/01 11:34:06;;;;;;;6.37;1.40;;;17.10;32.00;;;;;;5033180;28;20879;-80
2024/01/01 11:36:33;;;;;;;3.50;0.80;;;17.00;31.40;;;;;;5033993;28;20513;-80
2024/01/01 11:39:01;;;;;;;5.63;1.17;;;17.10;30.80;;;;;;5031481;28;20549;-84
2024/01/01 11:41:29;;;;;;;2.90;0.90;;;17.00;31.30;;;;;;5032694;28;20484;-81
2024/01/01 11:44:08;;;;;;;3.80;1.17;;;17.10;30.80;;;;;;5033587;28;20431;-80
2024/01/01 11:46:36;;;;;;;2.87;1.20;;;17.40;30.60;;;;;;5033741;28;20582;-81
2024/01/01 11:49:04;;;;;;;4.00;0.90;;;17.50;30.60;;;;;;5033678;28;20551;-81
2024/01/01 11:51:32;;;;;;;3.03;1.13;;;17.70;30.00;;;;;;5025209;28;20548;-80
2024/01/01 11:54:10;;;;;;;3.10;1.00;;;17.70;29.40;;;;;;5013563;28;20488;-81
2024/01/01 11:56:38;;;;;;;2.10;1.03;;;17.50;29.30;;;;;;5029495;28;20796;-80
2024/01/01 11:59:07;;;;;;;2.10;1.07;;;17.40;29.40;;;;;;5032710;28;20440;-82
2024/01/01 12:01:37;;;;;;;3.63;1.20;;;17.30;29.60;;;;;;5027014;28;20452;-82
2024/01/01 12:04:07;;;;;;;4.17;1.13;;;17.20;29.90;;;;;;5033101;28;20467;-83
2024/01/01 12:06:34;;;;;;;3.17;1.43;;;17.00;29.90;;;;;;5032582;28;20444;-81
2024/01/01 12:09:10;;;;;;;2.43;1.40;;;16.90;30.00;;;;;;5015353;28;20506;-82
2024/01/01 12:11:38;;;;;;;3.23;0.90;;;16.80;30.80;;;;;;5012918;28;20526;-82
2024/01/01 12:14:05;;;;;;;4.43;1.07;;;16.70;30.80;;;;;;5028843;28;20483;-82
2024/01/01 12:16:33;;;;;;;4.80;1.10;;;16.50;30.60;;;;;;5029456;28;20443;-83
2024/01/01 12:19:03;;;;;;;3.50;0.97;;;16.40;30.80;;;;;;5029015;28;20469;-82
2024/01/01 12:21:41;;;;;;;4.07;1.33;;;16.40;30.40;;;;;;5032314;28;20522;-82
2024/01/01 12:24:09;;;;;;;4.20;1.20;;;16.30;29.90;;;;;;5015219;28;20440;-80
2024/01/01 12:26:39;;;;;;;6.10;1.90;;;16.30;30.90;;;;;;5029023;28;20551;-82
2024/01/01 12:29:13;;;;;;;2.80;1.07;;;16.10;30.80;;;;;;5032903;28;20520;-82
2024/01/01 12:31:42;;;;;;;4.43;1.07;;;15.80;31.40;;;;;;5014199;28;20426;-81
2024/01/01 12:34:14;;;;;;;2.40;1.27;;;15.40;31.40;;;;;;5031892;28;20491;-82
2024/01/01 12:36:43;;;;;;;3.03;1.00;;;15.30;32.80;;;;;;5032108;28;20900;-82
2024/01/01 12:39:11;;;;;;;3.43;1.67;;;15.30;32.40;;;;;;5032321;28;20772;-81
2024/01/01 12:41:38;;;;;;;2.70;0.80;;;15.50;32.10;;;;;;5032704;28;20488;-83
2024/01/01 12:44:05;;;;;;;4.13;1.73;;;15.50;31.20;;;;;;5032399;28;20437;-83
2024/01/01 12:46:33;;;;;;;4.40;1.50;;;15.40;31.50;;;;;;5032429;28;20496;-84
2024/01/01 12:49:00;;;;;;;7.13;1.80;;;15.50;32.00;;;;;;5032230;28;20417;-84
2024/01/01 12:51:30;;;;;;;3.87;1.00;;;15.60;31.50;;;;;;5028650;28;20517;-82
2024/01/01 12:53:58;;;;;;;2.70;0.80;;;15.60;31.10;;;;;;5013752;28;20470;-81
2024/01/01 12:56:28;;;;;;;4.07;1.00;;;15.50;30.60;;;;;;5032097;28;20537;-81